createdAt,value
2019-01-02T05:02:57.709Z,2.70
2019-01-02T05:05:27.213Z,2.70
2019-01-02T05:07:56.693Z,2.70
2019-01-02T05:10:26.223Z,2.70
2019-01-02T05:12:55.755Z,2.70
2019-01-02T05:15:25.197Z,2.70
2019-01-02T05:17:54.621Z,2.70
2019-01-02T05:20:24.115Z,2.80
2019-01-02T05:22:53.541Z,2.80
2019-01-02T05:25:23.031Z,2.80
2019-01-02T05:27:52.515Z,2.80
2019-01-02T05:30:21.983Z,2.80
2019-01-02T05:32:51.424Z,2.80
2019-01-02T05:35:20.964Z,2.80
2019-01-02T05:37:50.441Z,2.80
2019-01-02T05:40:22.029Z,2.80
2019-01-02T05:42:51.531Z,2.70
2019-01-02T05:45:20.983Z,2.70
2019-01-02T05:47:50.461Z,2.70
2019-01-02T05:50:20.173Z,2.70
2019-01-02T05:52:49.678Z,2.70
2019-01-02T05:55:19.135Z,2.70
2019-01-02T05:57:48.646Z,2.70
2019-01-02T06:00:18.151Z,2.70
2019-01-02T06:02:47.640Z,2.70
2019-01-02T06:05:17.101Z,2.70
2019-01-02T06:07:46.659Z,2.70
2019-01-02T06:10:16.741Z,2.70
2019-01-02T06:12:46.203Z,2.60
2019-01-02T06:15:17.185Z,2.60
2019-01-02T06:17:46.707Z,2.50
2019-01-02T06:20:17.797Z,2.50
2019-01-02T06:22:47.287Z,2.50
2019-01-02T06:25:16.754Z,2.40
2019-01-02T06:27:46.254Z,2.40
2019-01-02T06:30:15.739Z,2.40
2019-01-02T06:32:45.186Z,2.40
2019-01-02T06:35:14.914Z,2.50
2019-01-02T06:37:44.393Z,2.50
2019-01-02T06:40:14.403Z,2.50
2019-01-02T06:42:43.864Z,2.50
2019-01-02T06:45:15.346Z,2.50
2019-01-02T06:47:44.784Z,2.50
2019-01-02T06:50:23.065Z,2.50
2019-01-02T06:52:52.538Z,2.50
2019-01-02T06:55:22.040Z,2.50
2019-01-02T06:57:51.523Z,2.50
2019-01-02T07:00:35.773Z,2.50
2019-01-02T07:03:05.215Z,2.50
2019-01-02T07:05:34.665Z,2.50
2019-01-02T07:08:04.117Z,2.50
2019-01-02T07:10:33.602Z,2.50
2019-01-02T07:13:03.052Z,2.40
2019-01-02T07:15:32.529Z,2.40
2019-01-02T07:18:02.047Z,2.40
2019-01-02T07:20:31.577Z,2.40
2019-01-02T07:23:01.066Z,2.30
2019-01-02T07:25:30.554Z,2.30
2019-01-02T07:28:00.025Z,2.30
2019-01-02T07:30:29.598Z,2.30
2019-01-02T07:32:59.113Z,2.30
2019-01-02T07:36:09.705Z,2.20
2019-01-02T07:39:04.732Z,2.20
2019-01-02T07:42:14.324Z,2.20
2019-01-02T07:45:28.023Z,2.10
2019-01-02T07:48:47.881Z,2.10
2019-01-02T07:51:47.884Z,2.10
2019-01-02T07:55:10.434Z,2.10
2019-01-02T07:58:11.236Z,2.10
2019-01-02T08:01:15.859Z,2.10
2019-01-02T08:04:35.217Z,2.20
2019-01-02T08:07:40.748Z,2.30
2019-01-02T08:10:41.413Z,2.30
2019-01-02T08:14:19.069Z,2.30
2019-01-02T08:17:47.790Z,2.30
2019-01-02T08:20:53.045Z,2.30
2019-01-02T08:23:38.542Z,2.20
2019-01-02T08:27:02.868Z,2.20
2019-01-02T08:30:01.400Z,2.20
2019-01-02T08:33:17.888Z,2.10
2019-01-02T08:36:20.388Z,2.10
2019-01-02T08:39:26.670Z,2.00
2019-01-02T08:42:19.688Z,1.90
2019-01-02T08:45:42.814Z,1.80
2019-01-02T08:49:05.610Z,1.80
2019-01-02T08:52:12.006Z,1.70
2019-01-02T08:55:27.219Z,1.70
2019-01-02T08:58:46.737Z,1.70
2019-01-02T09:01:35.335Z,1.70
2019-01-02T09:04:14.294Z,1.80
2019-01-02T09:07:25.192Z,1.90
2019-01-02T09:10:18.433Z,1.90
2019-01-02T09:13:30.760Z,2.10
2019-01-02T09:16:52.537Z,2.20
2019-01-02T09:20:09.564Z,2.30
2019-01-02T09:23:32.205Z,2.40
2019-01-02T09:26:37.308Z,2.40
2019-01-02T09:29:58.367Z,2.30
2019-01-02T09:33:18.036Z,2.20
2019-01-02T09:36:23.722Z,2.10
2019-01-02T09:39:39.139Z,2.20
2019-01-02T09:42:49.068Z,2.30
2019-01-02T09:45:37.593Z,2.50
2019-01-02T09:48:35.592Z,2.60
2019-01-02T09:52:01.342Z,2.70
2019-01-02T09:55:01.545Z,2.80
2019-01-02T09:58:02.117Z,2.80
2019-01-02T10:00:56.342Z,2.80
2019-01-02T10:04:19.503Z,2.70
2019-01-02T10:07:25.199Z,2.60
2019-01-02T10:10:39.650Z,2.60
2019-01-02T10:13:47.262Z,2.50
2019-01-02T10:16:57.890Z,2.50
2019-01-02T10:20:16.512Z,2.60
2019-01-02T10:23:14.429Z,2.60
2019-01-02T10:26:24.076Z,2.70
2019-01-02T10:29:19.999Z,2.70
2019-01-02T10:32:32.043Z,2.70
2019-01-02T10:35:43.687Z,2.70
2019-01-02T10:38:38.891Z,2.60
2019-01-02T10:41:44.260Z,2.60
2019-01-02T10:44:53.852Z,2.60
2019-01-02T10:47:52.360Z,2.50
2019-01-02T10:50:42.496Z,2.50
2019-01-02T10:53:37.856Z,2.50
2019-01-02T10:56:43.770Z,2.50
2019-01-02T10:59:30.721Z,2.60
2019-01-02T11:02:24.109Z,2.60
2019-01-02T11:05:31.752Z,2.70
2019-01-02T11:09:00.883Z,2.70
2019-01-02T11:12:20.373Z,2.60
2019-01-02T11:15:39.223Z,2.60
2019-01-02T11:18:33.731Z,2.60
2019-01-02T11:21:44.447Z,2.60
2019-01-02T11:24:47.458Z,2.60
2019-01-02T11:28:13.196Z,2.60
2019-01-02T11:31:37.976Z,2.60
2019-01-02T11:35:06.654Z,2.60
2019-01-02T11:38:12.927Z,2.70
2019-01-02T11:55:15.021Z,2.70
2019-01-02T11:57:44.473Z,2.80
2019-01-02T12:00:16.112Z,2.70
2019-01-02T12:02:45.569Z,2.70
2019-01-02T12:05:15.084Z,2.50
2019-01-02T12:07:44.554Z,2.30
2019-01-02T12:10:14.838Z,2.20
2019-01-02T12:12:44.276Z,2.10
2019-01-02T12:15:13.848Z,2.00
2019-01-02T12:17:43.285Z,1.90
2019-01-02T12:20:12.753Z,1.90
2019-01-02T12:22:42.233Z,1.80
2019-01-02T12:25:13.386Z,1.80
2019-01-02T12:27:43.808Z,1.70
2019-01-02T12:30:16.034Z,1.70
2019-01-02T12:32:46.717Z,1.70
2019-01-02T12:35:16.168Z,1.60
2019-01-02T12:37:45.620Z,1.50
2019-01-02T12:40:15.056Z,1.50
2019-01-02T12:42:45.922Z,1.40
2019-01-02T12:45:15.817Z,1.50
2019-01-02T12:47:45.294Z,1.40
2019-01-02T12:50:14.724Z,1.40
2019-01-02T12:52:44.423Z,1.30
2019-01-02T12:55:13.872Z,1.30
2019-01-02T12:57:43.459Z,1.30
2019-01-02T13:00:14.427Z,1.30
2019-01-02T13:03:08.997Z,1.30
2019-01-02T13:06:08.715Z,1.30
2019-01-02T13:09:18.347Z,1.40
2019-01-02T13:12:19.106Z,1.50
2019-01-02T13:15:35.746Z,1.50
2019-01-02T13:18:57.638Z,1.60
2019-01-02T13:22:15.875Z,1.70
2019-01-02T13:25:14.491Z,1.70
2019-01-02T13:28:24.939Z,1.70
2019-01-02T13:31:16.866Z,1.80
2019-01-02T13:34:08.608Z,1.80
2019-01-02T13:37:01.857Z,1.80
2019-01-02T13:40:26.452Z,1.80
2019-01-02T13:43:48.707Z,1.80
2019-01-02T13:46:47.236Z,1.80
2019-01-02T13:49:43.105Z,1.80
2019-01-02T13:52:12.570Z,1.80
2019-01-02T13:54:42.106Z,1.70
2019-01-02T13:57:11.541Z,1.70
2019-01-02T13:59:41.017Z,1.70
2019-01-02T14:02:10.459Z,1.70
2019-01-02T14:04:42.239Z,1.60
2019-01-02T14:07:11.708Z,1.60
2019-01-02T14:09:41.135Z,1.60
2019-01-02T14:12:10.573Z,1.60
2019-01-02T14:14:40.055Z,1.60
2019-01-02T14:17:09.477Z,1.50
2019-01-02T14:19:38.916Z,1.60
2019-01-02T14:22:08.398Z,1.50
2019-01-02T14:24:37.830Z,1.50
2019-01-02T14:27:07.268Z,1.50
2019-01-02T14:29:36.725Z,1.50
2019-01-02T14:32:06.143Z,1.50
2019-01-02T14:34:36.202Z,1.40
2019-01-02T14:37:05.680Z,1.40
2019-01-02T14:39:35.116Z,1.40
2019-01-02T14:42:04.557Z,1.40
2019-01-02T14:44:34.057Z,1.30
2019-01-02T14:47:03.491Z,1.30
2019-01-02T14:49:32.954Z,1.30
2019-01-02T14:52:02.535Z,1.20
2019-01-02T14:54:31.938Z,1.20
2019-01-02T14:57:01.402Z,1.20
2019-01-02T14:59:30.829Z,1.20
2019-01-02T15:02:00.255Z,1.20
2019-01-02T15:04:29.724Z,1.20
2019-01-02T15:06:59.165Z,1.20
2019-01-02T15:09:28.576Z,1.10
2019-01-02T15:11:58.036Z,1.10
2019-01-02T15:14:27.460Z,1.10
2019-01-02T15:16:57.164Z,1.10
2019-01-02T15:19:26.635Z,1.10
2019-01-02T15:21:56.056Z,1.00
2019-01-02T15:24:25.491Z,1.00
2019-01-02T15:26:54.959Z,1.00
2019-01-02T15:29:24.393Z,1.00
2019-01-02T15:31:53.795Z,1.00
2019-01-02T15:34:23.260Z,1.00
2019-01-02T15:36:53.617Z,1.00
2019-01-02T15:39:23.054Z,1.00
2019-01-02T15:41:54.116Z,1.00
2019-01-02T15:44:23.590Z,1.00
2019-01-02T15:46:53.054Z,1.00
2019-01-02T15:49:22.662Z,1.00
2019-01-02T15:51:52.084Z,1.00
2019-01-02T15:54:21.547Z,0.90
2019-01-02T15:56:51.055Z,0.90
2019-01-02T15:59:20.485Z,0.80
2019-01-02T16:01:49.924Z,0.80
2019-01-02T16:04:19.439Z,0.70
2019-01-02T16:06:48.978Z,0.70
2019-01-02T16:09:18.416Z,0.70
2019-01-02T16:11:47.915Z,0.70
2019-01-02T16:14:17.384Z,0.60
2019-01-02T16:16:46.887Z,0.70
2019-01-02T16:19:16.343Z,0.70
2019-01-02T16:21:45.788Z,0.70
2019-01-02T16:24:15.208Z,0.70
2019-01-02T16:26:44.692Z,0.70
2019-01-02T16:29:14.168Z,0.70
2019-01-02T16:31:43.615Z,0.70
2019-01-02T16:34:13.086Z,0.70
2019-01-02T16:36:42.517Z,0.70
2019-01-02T16:39:11.990Z,0.70
2019-01-02T16:41:41.477Z,0.80
2019-01-02T16:44:10.920Z,0.70
2019-01-02T16:46:40.361Z,0.70
2019-01-02T16:49:09.829Z,0.80
2019-01-02T16:51:39.285Z,0.80
2019-01-02T16:54:08.731Z,0.70
2019-01-02T16:56:38.247Z,0.70
2019-01-02T16:59:07.713Z,0.70
2019-01-02T17:01:37.152Z,0.70
2019-01-02T17:04:06.681Z,0.70
2019-01-02T17:06:36.115Z,0.70
2019-01-02T17:09:08.402Z,0.70
2019-01-02T17:11:37.886Z,0.60
2019-01-02T17:14:07.352Z,0.70
2019-01-02T17:16:36.859Z,0.60
2019-01-02T17:19:06.370Z,0.60
2019-01-02T17:21:35.819Z,0.60
2019-01-02T17:24:05.300Z,0.60
2019-01-02T17:26:34.832Z,0.60
2019-01-02T17:29:04.287Z,0.60
2019-01-02T17:31:33.751Z,0.60
2019-01-02T17:34:03.255Z,0.50
2019-01-02T17:36:32.727Z,0.60
2019-01-02T17:39:02.200Z,0.60
2019-01-02T17:41:31.716Z,0.60
2019-01-02T17:44:01.210Z,0.60
2019-01-02T17:46:30.690Z,0.60
2019-01-02T17:49:00.179Z,0.50
2019-01-02T17:51:29.632Z,0.50
2019-01-02T17:53:59.093Z,0.50
2019-01-02T17:56:28.560Z,0.40
2019-01-02T17:58:58.076Z,0.40
2019-01-02T18:01:27.565Z,0.30
2019-01-02T18:03:57.057Z,0.30
2019-01-02T18:06:26.532Z,0.30
2019-01-02T18:08:55.963Z,0.30
2019-01-02T18:11:25.470Z,0.30
2019-01-02T18:13:54.906Z,0.30
2019-01-02T18:16:24.369Z,0.20
2019-01-02T18:18:54.172Z,0.20
2019-01-02T18:21:23.634Z,0.30
2019-01-02T18:23:53.112Z,0.30
2019-01-02T18:26:22.668Z,0.20
2019-01-02T18:28:52.152Z,0.20
2019-01-02T18:31:21.732Z,0.20
2019-01-02T18:33:51.403Z,0.20
2019-01-02T18:36:20.873Z,0.20
2019-01-02T18:38:50.409Z,0.20
2019-01-02T18:41:19.907Z,0.20
2019-01-02T18:43:49.394Z,0.20
2019-01-02T18:46:18.864Z,0.20
2019-01-02T18:48:48.383Z,0.20
2019-01-02T18:51:17.835Z,0.20
2019-01-02T18:53:47.294Z,0.20
2019-01-02T18:56:16.810Z,0.20
2019-01-02T18:58:46.288Z,0.30
2019-01-02T19:01:15.865Z,0.30
2019-01-02T19:03:45.293Z,0.30
2019-01-02T19:06:14.777Z,0.30
2019-01-02T19:08:44.222Z,0.30
2019-01-02T19:11:13.725Z,0.30
2019-01-02T19:13:43.196Z,0.30
2019-01-02T19:16:12.657Z,0.30
2019-01-02T19:18:42.165Z,0.30
2019-01-02T19:21:11.634Z,0.40
2019-01-02T19:23:41.111Z,0.30
2019-01-02T19:26:10.611Z,0.30
2019-01-02T19:28:40.077Z,0.30
2019-01-02T19:31:09.533Z,0.20
2019-01-02T19:33:39.056Z,0.20
2019-01-02T19:36:08.565Z,0.20
2019-01-02T19:38:38.066Z,0.20
2019-01-02T19:41:07.570Z,0.20
2019-01-02T19:43:37.374Z,0.20
2019-01-02T19:46:06.861Z,0.20
2019-01-02T19:48:36.422Z,0.20
2019-01-02T19:51:05.862Z,0.20
2019-01-02T19:53:35.307Z,0.20
2019-01-02T19:56:04.816Z,0.10
2019-01-02T19:58:34.283Z,0.10
2019-01-02T20:01:03.746Z,0.10
2019-01-02T20:03:33.238Z,0.10
2019-01-02T20:06:02.703Z,0.10
2019-01-02T20:08:32.170Z,0.20
2019-01-02T20:11:01.690Z,0.10
2019-01-02T20:13:31.132Z,0.10
2019-01-02T20:16:00.612Z,0.10
2019-01-02T20:18:30.149Z,0.10
2019-01-02T20:20:59.633Z,0.10
2019-01-02T20:23:29.106Z,0.10
2019-01-02T20:25:58.631Z,0.20
2019-01-02T20:28:28.115Z,0.20
2019-01-02T20:30:57.614Z,0.10
2019-01-02T20:33:27.104Z,0.20
2019-01-02T20:35:56.612Z,0.20
2019-01-02T20:38:26.141Z,0.20
2019-01-02T20:40:55.766Z,0.20
2019-01-02T20:43:25.200Z,0.20
2019-01-02T20:45:54.649Z,0.20
2019-01-02T20:48:24.166Z,0.20
2019-01-02T20:50:53.644Z,0.20
2019-01-02T20:53:23.129Z,0.20
2019-01-02T20:55:52.634Z,0.30
2019-01-02T20:58:22.169Z,0.30
2019-01-02T21:00:51.610Z,0.30
2019-01-02T21:03:21.108Z,0.30
2019-01-02T21:05:50.605Z,0.30
2019-01-02T21:08:20.062Z,0.20
2019-01-02T21:10:49.543Z,0.30
2019-01-02T21:13:19.004Z,0.30
2019-01-02T21:15:48.464Z,0.30
2019-01-02T21:18:17.983Z,0.30
2019-01-02T21:20:47.439Z,0.30
2019-01-02T21:23:17.459Z,0.30
2019-01-02T21:25:46.958Z,0.40
2019-01-02T21:28:16.423Z,0.40
2019-01-02T21:30:45.878Z,0.40
2019-01-02T21:33:15.419Z,0.40
2019-01-02T21:35:44.890Z,0.40
2019-01-02T21:38:14.400Z,0.40
2019-01-02T21:40:43.897Z,0.40
2019-01-02T21:43:13.343Z,0.40
2019-01-02T21:45:42.814Z,0.40
2019-01-02T21:48:12.316Z,0.40
2019-01-02T21:50:41.764Z,0.40
2019-01-02T21:53:11.232Z,0.40
2019-01-02T21:55:40.755Z,0.40
2019-01-02T21:58:10.195Z,0.40
2019-01-02T22:00:39.681Z,0.50
2019-01-02T22:03:09.178Z,0.40
2019-01-02T22:05:38.638Z,0.30
2019-01-02T22:08:08.088Z,0.30
2019-01-02T22:10:37.587Z,0.20
2019-01-02T22:13:07.055Z,0.10
2019-01-02T22:15:36.516Z,0.10
2019-01-02T22:18:06.063Z,0.00
2019-01-02T22:20:35.550Z,0.00
2019-01-02T22:23:04.998Z,0.00
2019-01-02T22:25:34.490Z,0.00
2019-01-02T22:28:03.945Z,0.00
2019-01-02T22:30:33.420Z,0.00
2019-01-02T22:33:02.949Z,0.00
2019-01-02T22:35:32.421Z,0.00
2019-01-02T22:38:01.897Z,0.00
2019-01-02T22:40:31.605Z,0.10
2019-01-02T22:43:01.093Z,0.10
2019-01-02T22:45:30.555Z,0.10
2019-01-02T22:48:00.043Z,0.10
2019-01-02T22:50:29.519Z,0.10
2019-01-02T22:52:58.974Z,0.10
2019-01-02T22:55:28.480Z,0.10
2019-01-02T22:57:57.932Z,0.10
2019-01-02T23:00:45.472Z,0.10
2019-01-02T23:03:49.201Z,0.10
2019-01-02T23:06:36.189Z,0.10
2019-01-02T23:09:28.883Z,0.10
2019-01-02T23:12:16.293Z,0.10
2019-01-02T23:15:03.483Z,0.10
2019-01-02T23:17:54.709Z,0.10
2019-01-02T23:20:43.111Z,0.10
2019-01-02T23:23:34.384Z,0.10
2019-01-02T23:26:21.514Z,0.10
2019-01-02T23:29:08.925Z,0.10
2019-01-02T23:32:05.578Z,0.10
2019-01-02T23:34:54.038Z,0.10
2019-01-02T23:37:51.682Z,0.10
2019-01-02T23:40:40.121Z,0.10
2019-01-02T23:43:37.490Z,0.00
2019-01-02T23:46:24.838Z,0.00
2019-01-02T23:49:18.804Z,0.10
2019-01-02T23:52:00.544Z,0.00
2019-01-02T23:54:58.007Z,0.00
2019-01-02T23:57:45.330Z,0.00
